createdAt,value
2024-02-29T00:03:28.655Z,13.35
2024-02-29T00:08:30.302Z,14.00
2024-02-29T00:13:32.331Z,13.73
2024-02-29T00:18:34.151Z,13.77
2024-02-29T00:23:36.045Z,15.25
2024-02-29T00:28:37.714Z,16.63
2024-02-29T00:33:40.985Z,14.68
2024-02-29T00:38:42.705Z,18.02
2024-02-29T00:43:44.853Z,15.32
2024-02-29T00:48:46.570Z,13.00
2024-02-29T00:53:48.396Z,14.85
2024-02-29T00:58:50.609Z,14.02
2024-02-29T01:03:52.238Z,14.82
2024-02-29T01:08:53.959Z,18.20
2024-02-29T01:13:55.602Z,14.00
2024-02-29T01:18:58.276Z,16.42
2024-02-29T01:24:00.418Z,15.95
2024-02-29T01:29:02.195Z,13.73
2024-02-29T01:34:04.275Z,13.68
2024-02-29T01:39:05.929Z,15.40
2024-02-29T01:44:07.572Z,19.55
2024-02-29T01:49:10.194Z,13.88
2024-02-29T01:54:12.223Z,16.33
2024-02-29T01:59:15.084Z,18.65
2024-02-29T02:04:17.510Z,17.52
2024-02-29T02:09:19.187Z,12.90
2024-02-29T02:14:20.865Z,15.02
2024-02-29T02:19:22.481Z,15.70
2024-02-29T02:24:25.473Z,15.88
2024-02-29T02:29:27.248Z,15.55
2024-02-29T02:34:28.862Z,13.35
2024-02-29T02:39:30.613Z,18.00
2024-02-29T02:44:32.269Z,17.15
2024-02-29T02:49:33.923Z,14.18
2024-02-29T02:54:35.565Z,14.18
2024-02-29T02:59:37.360Z,13.32
2024-02-29T03:04:39.063Z,15.48
2024-02-29T03:09:40.881Z,15.13
2024-02-29T03:14:42.640Z,14.38
2024-02-29T03:19:44.324Z,13.40
2024-02-29T03:24:46.999Z,15.18
2024-02-29T03:29:48.711Z,14.65
2024-02-29T03:34:50.711Z,20.33
2024-02-29T03:39:52.349Z,14.38
2024-02-29T03:44:57.706Z,15.52
2024-02-29T03:49:59.954Z,16.45
2024-02-29T03:55:01.633Z,13.95
2024-02-29T04:00:04.312Z,13.80
2024-02-29T04:05:06.999Z,16.38
2024-02-29T04:10:09.717Z,16.83
2024-02-29T04:15:11.745Z,16.10
2024-02-29T04:20:13.468Z,15.00
2024-02-29T04:25:17.369Z,14.32
2024-02-29T04:30:19.414Z,13.38
2024-02-29T04:35:21.866Z,18.33
2024-02-29T04:40:23.548Z,19.38
2024-02-29T04:45:25.673Z,16.70
2024-02-29T04:50:27.333Z,18.60
2024-02-29T04:55:28.938Z,15.15
2024-02-29T05:00:30.553Z,15.43
2024-02-29T05:05:32.190Z,12.13
2024-02-29T05:10:34.328Z,16.75
2024-02-29T05:15:37.189Z,15.55
2024-02-29T05:20:39.008Z,12.52
2024-02-29T05:25:41.059Z,10.90
2024-02-29T05:30:43.906Z,12.45
2024-02-29T05:35:51.759Z,11.90
2024-02-29T05:45:55.097Z,10.65
2024-02-29T05:50:57.460Z,9.35
2024-02-29T05:55:59.142Z,8.63
2024-02-29T06:01:01.273Z,9.68
2024-02-29T06:06:03.167Z,8.52
2024-02-29T06:11:04.901Z,12.38
2024-02-29T06:16:07.094Z,8.40
2024-02-29T06:21:08.979Z,8.10
2024-02-29T06:26:10.694Z,10.88
2024-02-29T06:31:12.354Z,9.55
2024-02-29T06:36:14.295Z,8.68
2024-02-29T06:41:16.005Z,8.10
2024-02-29T06:46:18.173Z,12.13
2024-02-29T06:51:19.938Z,9.50
2024-02-29T06:56:21.753Z,10.57
2024-02-29T07:01:24.251Z,7.22
2024-02-29T07:06:26.488Z,10.57
2024-02-29T07:11:29.635Z,9.07
2024-02-29T07:16:33.919Z,11.77
2024-02-29T07:21:37.114Z,8.60
2024-02-29T07:26:44.811Z,7.65
2024-02-29T07:31:46.511Z,8.38
2024-02-29T07:36:49.948Z,10.82
2024-02-29T07:41:51.770Z,9.32
2024-02-29T07:46:53.499Z,8.23
2024-02-29T07:51:56.373Z,8.05
2024-02-29T07:56:58.930Z,10.38
2024-02-29T08:02:00.729Z,9.88
2024-02-29T08:07:02.496Z,7.28
2024-02-29T08:12:04.591Z,9.65
2024-02-29T08:17:06.235Z,8.73
2024-02-29T08:22:08.008Z,11.80
2024-02-29T08:27:09.746Z,10.85
2024-02-29T08:32:15.552Z,12.77
2024-02-29T08:37:17.650Z,14.90
2024-02-29T08:42:19.796Z,9.30
2024-02-29T08:47:21.442Z,11.25
2024-02-29T08:52:23.265Z,11.30
2024-02-29T08:57:24.914Z,9.77
2024-02-29T09:02:26.649Z,11.20
2024-02-29T09:07:28.840Z,11.13
2024-02-29T09:12:30.636Z,12.45
2024-02-29T09:17:32.434Z,10.02
2024-02-29T09:22:34.189Z,8.48
2024-02-29T09:27:35.864Z,11.95
2024-02-29T09:32:37.615Z,12.38
2024-02-29T09:37:39.347Z,14.05
2024-02-29T09:42:41.250Z,12.57
2024-02-29T09:47:46.080Z,13.35
2024-02-29T09:52:52.810Z,12.80
2024-02-29T09:57:55.534Z,13.43
2024-02-29T10:03:01.752Z,11.80
2024-02-29T10:08:06.758Z,13.57
2024-02-29T10:13:09.766Z,9.50
2024-02-29T10:18:12.217Z,9.95
2024-02-29T10:23:15.934Z,11.23
2024-02-29T10:28:20.271Z,11.07
2024-02-29T10:33:28.854Z,11.88
2024-02-29T10:38:30.563Z,14.38
2024-02-29T10:43:33.103Z,12.75
2024-02-29T10:48:52.253Z,12.27
2024-02-29T10:54:09.325Z,12.57
2024-02-29T10:59:13.552Z,5.37
2024-02-29T11:04:18.809Z,13.65
2024-02-29T11:09:26.459Z,11.43
2024-02-29T11:14:38.444Z,14.75
2024-02-29T11:19:48.240Z,11.98
2024-02-29T11:24:56.646Z,13.00
2024-02-29T11:30:02.632Z,12.82
2024-02-29T11:35:05.274Z,12.00
2024-02-29T11:40:08.713Z,12.50
2024-02-29T11:45:20.418Z,11.63
2024-02-29T11:50:22.566Z,10.25
2024-02-29T11:55:25.111Z,10.88
2024-02-29T12:00:29.346Z,9.55
2024-02-29T12:05:32.556Z,11.05
2024-02-29T12:10:35.341Z,11.63
2024-02-29T12:15:38.710Z,9.25
2024-02-29T12:20:41.210Z,10.15
2024-02-29T12:25:46.606Z,12.63
2024-02-29T12:30:50.192Z,6.40
2024-02-29T12:35:52.704Z,8.77
2024-02-29T12:40:56.020Z,7.15
2024-02-29T12:45:58.372Z,7.32
2024-02-29T12:51:00.763Z,7.18
2024-02-29T12:56:04.637Z,6.10
2024-02-29T13:01:08.440Z,7.05
2024-02-29T13:06:11.549Z,9.50
2024-02-29T13:11:13.800Z,9.45
2024-02-29T13:16:16.067Z,6.65
2024-02-29T13:21:18.235Z,8.18
2024-02-29T13:26:20.643Z,6.57
2024-02-29T13:31:23.495Z,6.30
2024-02-29T13:36:26.006Z,8.63
2024-02-29T13:41:30.336Z,7.15
2024-02-29T13:46:32.921Z,8.02
2024-02-29T13:51:35.301Z,8.50
2024-02-29T13:56:37.472Z,8.73
2024-02-29T14:01:39.775Z,9.88
2024-02-29T14:06:42.066Z,8.43
2024-02-29T14:11:45.246Z,9.68
2024-02-29T14:16:47.409Z,8.27
2024-02-29T14:21:49.173Z,12.18
2024-02-29T14:26:52.849Z,11.50
2024-02-29T14:31:54.627Z,9.82
2024-02-29T14:36:56.712Z,10.15
2024-02-29T14:41:58.624Z,10.18
2024-02-29T14:47:00.353Z,7.65
2024-02-29T14:52:02.100Z,8.55
2024-02-29T14:57:04.129Z,8.95
2024-02-29T15:02:09.273Z,8.57
2024-02-29T15:07:12.538Z,10.95
2024-02-29T15:12:14.419Z,8.85
2024-02-29T15:17:16.401Z,9.25
2024-02-29T15:22:18.251Z,8.57
2024-02-29T15:27:20.716Z,14.07
2024-02-29T15:32:23.666Z,12.48
2024-02-29T15:37:27.618Z,9.70
2024-02-29T15:42:29.353Z,9.73
2024-02-29T15:47:31.027Z,13.40
2024-02-29T15:52:32.981Z,11.70
2024-02-29T15:57:38.110Z,13.60
2024-02-29T16:02:40.182Z,10.25
2024-02-29T16:07:41.852Z,12.65
2024-02-29T16:12:43.763Z,10.75
2024-02-29T16:17:45.604Z,13.38
2024-02-29T16:22:47.845Z,13.27
2024-02-29T16:27:52.002Z,13.43
2024-02-29T16:32:53.705Z,13.00
2024-02-29T16:37:57.157Z,11.27
2024-02-29T16:43:00.341Z,11.57
2024-02-29T16:48:02.423Z,10.32
2024-02-29T16:53:06.090Z,9.73
2024-02-29T16:58:08.316Z,9.13
2024-02-29T17:03:10.439Z,10.38
2024-02-29T17:08:12.066Z,11.50
2024-02-29T17:13:14.615Z,14.73
2024-02-29T17:18:16.848Z,8.80
2024-02-29T17:23:18.637Z,12.82
2024-02-29T17:28:20.337Z,10.63
2024-02-29T17:33:22.159Z,7.75
2024-02-29T17:38:24.475Z,10.13
2024-02-29T17:43:26.870Z,9.60
2024-02-29T17:48:28.895Z,8.15
2024-02-29T17:53:30.543Z,11.57
2024-02-29T17:58:32.452Z,8.85
2024-02-29T18:03:34.430Z,8.18
2024-02-29T18:08:36.171Z,7.90
2024-02-29T18:13:38.190Z,9.38
2024-02-29T18:18:41.745Z,10.05
2024-02-29T18:23:43.774Z,9.00
2024-02-29T18:28:45.695Z,10.13
2024-02-29T18:33:47.715Z,9.60
2024-02-29T18:38:49.897Z,7.00
2024-02-29T18:43:51.984Z,10.10
2024-02-29T18:48:54.041Z,7.80
2024-02-29T18:53:56.049Z,8.32
2024-02-29T18:58:58.848Z,9.07
2024-02-29T19:04:01.353Z,7.53
2024-02-29T19:09:03.578Z,9.60
2024-02-29T19:14:05.577Z,6.80
2024-02-29T19:19:08.979Z,7.13
2024-02-29T19:24:12.241Z,6.60
2024-02-29T19:29:13.890Z,10.38
2024-02-29T19:34:15.709Z,8.80
2024-02-29T19:39:17.665Z,10.77
2024-02-29T19:44:19.365Z,6.63
2024-02-29T19:49:20.998Z,8.98
2024-02-29T19:54:23.283Z,7.75
2024-02-29T19:59:24.968Z,11.27
2024-02-29T20:04:29.380Z,9.30
2024-02-29T20:09:31.560Z,9.32
2024-02-29T20:14:33.453Z,10.50
2024-02-29T20:19:37.413Z,8.10
2024-02-29T20:24:40.781Z,8.32
2024-02-29T20:29:44.518Z,9.23
2024-02-29T20:34:46.264Z,13.45
2024-02-29T20:39:47.916Z,10.73
2024-02-29T20:44:49.615Z,9.35
2024-02-29T20:49:51.912Z,11.07
2024-02-29T20:54:54.332Z,10.68
2024-02-29T20:59:56.186Z,10.90
2024-02-29T21:05:04.677Z,11.15
2024-02-29T21:10:06.714Z,9.63
2024-02-29T21:15:08.810Z,13.68
2024-02-29T21:20:11.936Z,12.50
2024-02-29T21:25:13.841Z,9.13
2024-02-29T21:30:15.972Z,9.00
2024-02-29T21:35:21.274Z,11.55
2024-02-29T21:40:23.076Z,11.25
2024-02-29T21:45:24.701Z,11.95
2024-02-29T21:50:26.326Z,11.98
2024-02-29T21:55:28.265Z,9.27
2024-02-29T22:00:29.913Z,11.27
2024-02-29T22:05:31.549Z,13.50
2024-02-29T22:10:33.372Z,9.82
2024-02-29T22:15:35.117Z,11.73
2024-02-29T22:20:36.845Z,13.20
2024-02-29T22:25:38.639Z,14.82
2024-02-29T22:30:40.289Z,17.20
2024-02-29T22:35:41.947Z,16.60
2024-02-29T22:40:43.604Z,14.88
2024-02-29T22:45:45.398Z,15.57
2024-02-29T22:50:47.929Z,14.77
2024-02-29T22:55:51.340Z,18.02
2024-02-29T23:00:54.477Z,11.88
2024-02-29T23:05:56.513Z,13.77
2024-02-29T23:10:58.957Z,15.13
2024-02-29T23:16:00.913Z,18.23
2024-02-29T23:21:02.745Z,14.15
2024-02-29T23:26:04.654Z,14.52
2024-02-29T23:31:06.590Z,15.82
2024-02-29T23:36:08.403Z,17.35
2024-02-29T23:41:10.159Z,17.15
2024-02-29T23:46:11.939Z,18.42
2024-02-29T23:51:13.865Z,17.83
2024-02-29T23:56:15.681Z,18.58
